Time;durP1;ratioP1;P1;durP2;ratioP2;P2;SDS_P1;SDS_P2;PMS_P1;PMS_P2;Temp;Humidity;BMP_temperature;BMP_pressure;BME280_temperature;BME280_humidity;BME280_pressure;Samples;Min_cycle;Max_cycle;Signal;HPM_P1;HPM_P2
2024/02/13 00:00:32;;;;;;;4.22;3.47;;;7.00;67.60;8.90;101152.00;;;;5021048;28;20283;-72
2024/02/13 00:03:00;;;;;;;4.43;3.40;;;7.00;67.50;8.90;101156.00;;;;5030928;28;20224;-72
2024/02/13 00:05:27;;;;;;;4.85;3.40;;;7.00;67.60;8.90;101157.00;;;;5027243;28;20280;-71
2024/02/13 00:07:54;;;;;;;4.82;3.97;;;7.00;67.60;8.90;101142.00;;;;5023207;28;20204;-71
2024/02/13 00:10:24;;;;;;;4.97;3.50;;;7.00;67.50;8.90;101153.00;;;;5033525;28;20263;-71
2024/02/13 00:12:51;;;;;;;3.60;2.85;;;7.00;67.50;8.90;101151.00;;;;5033382;28;20681;-71
2024/02/13 00:15:20;;;;;;;6.82;3.90;;;7.00;67.50;8.90;101162.00;;;;5031643;28;20195;-71
2024/02/13 00:17:47;;;;;;;6.15;3.13;;;7.00;67.70;8.90;101161.00;;;;5021469;28;20204;-71
2024/02/13 00:20:15;;;;;;;4.03;3.15;;;7.00;67.80;8.90;101164.00;;;;5033145;28;20247;-71
2024/02/13 00:22:42;;;;;;;4.40;3.17;;;7.10;67.90;8.90;101166.00;;;;5034806;28;20273;-71
2024/02/13 00:25:10;;;;;;;6.35;3.65;;;7.00;67.80;8.90;101168.00;;;;5034230;28;20232;-71
2024/02/13 00:27:38;;;;;;;7.05;4.07;;;7.00;67.80;8.90;101168.00;;;;5031232;28;20650;-71
2024/02/13 00:30:09;;;;;;;7.57;3.58;;;7.00;67.90;8.90;101164.00;;;;5031518;28;20271;-71
2024/02/13 00:32:38;;;;;;;3.88;3.15;;;7.10;68.00;8.90;101174.00;;;;5032611;28;20640;-71
2024/02/13 00:35:06;;;;;;;5.65;3.95;;;7.10;68.00;8.90;101169.00;;;;5033528;28;20207;-72
2024/02/13 00:37:33;;;;;;;4.45;3.22;;;7.10;68.00;8.90;101165.00;;;;5033963;28;20196;-71
2024/02/13 00:40:02;;;;;;;4.53;3.25;;;7.10;67.90;8.90;101173.00;;;;5033429;28;20666;-71
2024/02/13 00:42:30;;;;;;;4.72;3.35;;;7.10;67.90;8.90;101168.00;;;;5033300;28;20224;-71
2024/02/13 00:45:00;;;;;;;7.05;3.95;;;7.10;67.90;8.90;101173.00;;;;5016994;28;20266;-71
2024/02/13 00:47:29;;;;;;;6.63;3.72;;;7.10;68.00;8.90;101168.00;;;;5033607;28;20279;-71
2024/02/13 00:49:57;;;;;;;5.32;4.05;;;7.10;68.00;8.90;101171.00;;;;5015986;28;20196;-71
2024/02/13 00:52:27;;;;;;;6.85;4.40;;;7.10;68.00;8.90;101176.00;;;;5033356;28;20589;-71
2024/02/13 00:54:55;;;;;;;5.50;4.18;;;7.10;68.00;8.90;101178.00;;;;5034307;28;20196;-71
2024/02/13 00:57:22;;;;;;;10.75;5.22;;;7.10;68.00;8.90;101187.00;;;;5033654;28;20231;-71
2024/02/13 00:59:49;;;;;;;5.00;4.38;;;7.10;68.00;8.90;101180.00;;;;5033397;28;20284;-71
2024/02/13 01:02:17;;;;;;;6.45;5.30;;;7.10;67.90;8.90;101192.00;;;;5033104;28;20306;-71
2024/02/13 01:04:45;;;;;;;7.40;4.60;;;7.10;67.90;9.00;101201.00;;;;5033635;28;20280;-71
2024/02/13 01:07:12;;;;;;;7.18;4.57;;;7.10;67.90;9.00;101198.00;;;;5032390;28;20203;-72
2024/02/13 01:09:39;;;;;;;7.22;5.03;;;7.10;67.90;9.00;101198.00;;;;5033833;28;21238;-71
2024/02/13 01:12:07;;;;;;;8.45;5.82;;;7.20;68.00;9.00;101193.00;;;;5032786;28;20748;-71
2024/02/13 01:14:34;;;;;;;6.85;5.35;;;7.20;67.90;9.00;101201.00;;;;5034083;28;20330;-71
2024/02/13 01:17:01;;;;;;;5.38;4.80;;;7.10;67.90;9.00;101201.00;;;;5033373;28;20691;-71
2024/02/13 01:19:31;;;;;;;9.68;5.68;;;7.20;67.90;9.00;101200.00;;;;5030191;28;20282;-71
2024/02/13 01:21:58;;;;;;;6.47;5.30;;;7.20;67.90;9.00;101196.00;;;;5025525;28;20210;-71
2024/02/13 01:24:26;;;;;;;7.47;5.22;;;7.20;68.00;9.00;101193.00;;;;5033994;28;20266;-71
2024/02/13 01:26:53;;;;;;;8.70;5.75;;;7.20;68.00;9.00;101204.00;;;;5032939;28;20680;-71
2024/02/13 01:29:20;;;;;;;8.23;5.75;;;7.20;68.00;9.00;101197.00;;;;5033673;28;20291;-71
2024/02/13 01:31:48;;;;;;;7.20;5.55;;;7.20;68.10;9.00;101200.00;;;;5032889;28;20208;-71
2024/02/13 01:34:16;;;;;;;7.07;5.38;;;7.20;68.00;9.00;101201.00;;;;5032280;28;20570;-71
2024/02/13 01:36:44;;;;;;;11.65;6.15;;;7.20;68.00;9.00;101211.00;;;;5033183;28;20204;-71
2024/02/13 01:39:11;;;;;;;8.05;6.28;;;7.20;68.10;9.00;101210.00;;;;5033891;28;20287;-71
2024/02/13 01:41:39;;;;;;;9.35;5.97;;;7.20;68.30;9.10;101206.00;;;;5031611;28;20192;-71
2024/02/13 01:44:06;;;;;;;8.70;6.53;;;7.20;68.30;9.10;101209.00;;;;5033563;28;20231;-71
2024/02/13 01:46:34;;;;;;;7.72;6.18;;;7.20;68.30;9.10;101209.00;;;;5032456;28;20197;-71
2024/02/13 01:49:03;;;;;;;7.43;6.40;;;7.30;68.40;9.10;101216.00;;;;5031975;28;20219;-71
2024/02/13 01:51:35;;;;;;;9.63;6.35;;;7.30;68.30;9.10;101223.00;;;;5029218;28;20216;-71
2024/02/13 01:54:10;;;;;;;7.32;6.05;;;7.30;68.40;9.10;101217.00;;;;5033615;28;20686;-71
2024/02/13 01:56:39;;;;;;;7.20;5.45;;;7.30;68.30;9.10;101215.00;;;;5028717;28;20192;-71
2024/02/13 01:59:07;;;;;;;7.90;5.45;;;7.30;68.20;9.10;101220.00;;;;5031243;28;20223;-71
2024/02/13 02:01:36;;;;;;;7.72;5.43;;;7.30;68.20;9.10;101219.00;;;;5030075;28;20271;-71
2024/02/13 02:04:06;;;;;;;6.53;5.50;;;7.30;68.20;9.10;101214.00;;;;5032769;28;20231;-71
2024/02/13 02:06:33;;;;;;;6.43;5.18;;;7.40;68.20;9.10;101216.00;;;;5032760;28;20207;-71
2024/02/13 02:09:01;;;;;;;7.97;5.13;;;7.40;68.20;9.20;101220.00;;;;5032833;28;20219;-71
2024/02/13 02:11:30;;;;;;;7.38;5.90;;;7.40;68.20;9.20;101218.00;;;;5027150;28;20204;-71
2024/02/13 02:13:58;;;;;;;8.00;5.82;;;7.40;68.20;9.20;101221.00;;;;5021973;28;21983;-71
2024/02/13 02:16:25;;;;;;;8.93;5.88;;;7.40;68.20;9.20;101226.00;;;;5014170;28;20212;-71
2024/02/13 02:18:53;;;;;;;6.95;5.45;;;7.40;68.10;9.20;101225.00;;;;5014325;28;20208;-71
2024/02/13 02:21:21;;;;;;;10.20;5.60;;;7.40;68.10;9.20;101222.00;;;;5012868;28;20193;-71
2024/02/13 02:23:48;;;;;;;9.15;6.72;;;7.40;68.00;9.20;101227.00;;;;5016233;28;20697;-71
2024/02/13 02:26:17;;;;;;;7.47;5.78;;;7.40;67.80;9.20;101227.00;;;;5031282;28;20274;-71
2024/02/13 02:28:45;;;;;;;12.32;6.88;;;7.40;67.80;9.20;101230.00;;;;5031848;28;20282;-71
2024/02/13 02:31:13;;;;;;;7.28;5.75;;;7.40;67.80;9.30;101231.00;;;;5013630;28;20747;-71
2024/02/13 02:33:43;;;;;;;6.82;5.82;;;7.40;67.80;9.30;101228.00;;;;5026995;28;20200;-71
2024/02/13 02:36:10;;;;;;;8.93;6.45;;;7.40;67.90;9.30;101232.00;;;;5031908;28;20231;-71
2024/02/13 02:38:38;;;;;;;8.10;6.57;;;7.40;68.10;9.30;101230.00;;;;5032617;28;20589;-71
2024/02/13 02:41:06;;;;;;;9.07;6.72;;;7.40;68.10;9.30;101220.00;;;;5031508;28;20196;-71
2024/02/13 02:43:37;;;;;;;8.40;6.75;;;7.40;68.20;9.30;101225.00;;;;5029696;28;20223;-71
2024/02/13 02:46:05;;;;;;;10.02;6.45;;;7.40;68.30;9.30;101226.00;;;;5032021;28;20196;-71
2024/02/13 02:48:32;;;;;;;8.50;6.85;;;7.40;68.30;9.30;101227.00;;;;5031824;28;20203;-71
2024/02/13 02:50:59;;;;;;;8.23;5.97;;;7.50;68.40;9.30;101225.00;;;;5027784;28;20227;-71
2024/02/13 02:53:26;;;;;;;10.05;7.03;;;7.50;68.40;9.30;101228.00;;;;5030057;28;20200;-71
2024/02/13 02:55:55;;;;;;;7.82;6.78;;;7.50;68.50;9.30;101222.00;;;;5031478;28;20219;-71
2024/02/13 02:58:22;;;;;;;10.93;7.43;;;7.50;68.50;9.40;101224.00;;;;5030599;28;20620;-71
2024/02/13 03:00:52;;;;;;;12.25;7.40;;;7.50;68.50;9.30;101223.00;;;;5031223;28;20220;-71
2024/02/13 03:03:20;;;;;;;9.13;7.22;;;7.60;68.60;9.40;101227.00;;;;5012604;28;20227;-71
2024/02/13 03:05:48;;;;;;;8.27;6.40;;;7.60;68.70;9.40;101225.00;;;;5029891;28;20219;-71
2024/02/13 03:08:15;;;;;;;7.38;6.32;;;7.60;68.70;9.40;101224.00;;;;5031365;28;20189;-72
2024/02/13 03:10:43;;;;;;;9.60;6.72;;;7.60;68.70;9.40;101221.00;;;;5022750;28;20211;-71
2024/02/13 03:13:13;;;;;;;8.93;7.03;;;7.60;68.60;9.40;101217.00;;;;5031655;28;20189;-71
2024/02/13 03:15:40;;;;;;;8.02;6.97;;;7.70;68.60;9.40;101224.00;;;;5025408;28;20728;-71
2024/02/13 03:18:09;;;;;;;8.38;6.82;;;7.70;68.60;9.40;101225.00;;;;5031511;28;20219;-71
2024/02/13 03:20:37;;;;;;;8.70;6.97;;;7.60;68.70;9.50;101229.00;;;;5030863;28;20230;-71
2024/02/13 03:23:04;;;;;;;8.77;7.00;;;7.70;68.70;9.50;101230.00;;;;5020063;28;20720;-71
2024/02/13 03:25:31;;;;;;;8.07;6.75;;;7.70;68.80;9.50;101228.00;;;;5030486;28;20203;-71
2024/02/13 03:27:58;;;;;;;8.18;6.80;;;7.70;68.70;9.50;101230.00;;;;5031578;28;20215;-71
2024/02/13 03:30:25;;;;;;;10.30;7.60;;;7.70;68.60;9.50;101238.00;;;;5029175;28;20314;-71
2024/02/13 03:32:53;;;;;;;8.23;6.88;;;7.70;68.60;9.50;101229.00;;;;5030363;28;20303;-71
2024/02/13 03:35:21;;;;;;;8.43;6.75;;;7.70;68.60;9.50;101232.00;;;;5030632;28;20287;-71
2024/02/13 03:37:48;;;;;;;7.57;6.43;;;7.70;68.60;9.50;101228.00;;;;5019549;28;20200;-71
2024/02/13 03:40:16;;;;;;;8.77;6.45;;;7.70;68.50;9.50;101231.00;;;;5028437;28;20224;-71
2024/02/13 03:42:44;;;;;;;8.00;6.88;;;7.70;68.50;9.50;101228.00;;;;5019741;28;20275;-71
2024/02/13 03:45:11;;;;;;;10.77;6.30;;;7.70;68.30;9.50;101230.00;;;;5034678;28;20197;-71
2024/02/13 03:47:39;;;;;;;11.63;6.70;;;7.70;68.30;9.50;101223.00;;;;5036226;28;20199;-71
2024/02/13 03:50:07;;;;;;;7.70;6.53;;;7.70;68.20;9.50;101222.00;;;;5033780;28;20279;-71
2024/02/13 03:52:36;;;;;;;7.63;6.47;;;7.70;68.20;9.50;101226.00;;;;5034364;28;20294;-71
2024/02/13 03:55:05;;;;;;;7.85;6.80;;;7.70;68.30;9.50;101236.00;;;;5034071;28;20286;-71
2024/02/13 03:57:33;;;;;;;9.60;6.88;;;7.70;68.30;9.50;101227.00;;;;5035033;28;20200;-71
2024/02/13 04:00:00;;;;;;;8.77;6.80;;;7.70;68.30;9.50;101233.00;;;;5035044;28;20215;-71
2024/02/13 04:02:28;;;;;;;7.00;6.20;;;7.70;68.30;9.50;101233.00;;;;5028882;28;20220;-72
2024/02/13 04:04:55;;;;;;;7.70;6.78;;;7.70;68.20;9.50;101233.00;;;;5033075;28;20224;-72
2024/02/13 04:07:22;;;;;;;8.27;6.18;;;7.70;68.20;9.50;101238.00;;;;5035133;28;20633;-72
2024/02/13 04:09:51;;;;;;;7.75;6.63;;;7.70;68.20;9.50;101242.00;;;;5034068;28;20204;-72
2024/02/13 04:12:18;;;;;;;8.13;6.53;;;7.70;68.20;9.50;101242.00;;;;5034584;28;20702;-72
2024/02/13 04:14:45;;;;;;;6.93;5.75;;;7.70;68.10;9.50;101239.00;;;;5034445;28;20276;-71
2024/02/13 04:17:12;;;;;;;7.45;6.43;;;7.70;68.00;9.50;101249.00;;;;5018401;28;20192;-71
2024/02/13 04:19:40;;;;;;;7.35;6.30;;;7.70;68.00;9.50;101243.00;;;;5031301;28;20266;-71
2024/02/13 04:22:07;;;;;;;7.68;6.35;;;7.60;67.90;9.40;101253.00;;;;5034724;28;20278;-71
2024/02/13 04:24:34;;;;;;;7.60;5.85;;;7.60;67.90;9.40;101254.00;;;;5033452;28;20717;-71
2024/02/13 04:27:04;;;;;;;7.07;6.25;;;7.60;67.90;9.40;101257.00;;;;5027254;28;20540;-71
2024/02/13 04:29:33;;;;;;;11.43;6.72;;;7.60;67.90;9.40;101254.00;;;;5034028;28;20204;-71
2024/02/13 04:32:01;;;;;;;7.35;6.53;;;7.60;67.90;9.40;101267.00;;;;5034566;28;20669;-71
2024/02/13 04:34:29;;;;;;;8.55;6.75;;;7.60;67.90;9.40;101262.00;;;;5033635;28;20192;-71
2024/02/13 04:36:56;;;;;;;8.80;6.25;;;7.50;67.90;9.40;101263.00;;;;5034780;28;20266;-71
2024/02/13 04:39:23;;;;;;;7.85;6.57;;;7.50;67.90;9.30;101266.00;;;;5033625;28;20708;-71
2024/02/13 04:41:50;;;;;;;7.32;6.43;;;7.50;67.90;9.30;101262.00;;;;5032645;28;20243;-71
2024/02/13 04:44:20;;;;;;;8.50;6.97;;;7.50;68.10;9.30;101259.00;;;;5033677;28;20224;-71
2024/02/13 04:46:47;;;;;;;10.15;7.10;;;7.50;68.20;9.30;101256.00;;;;5034354;28;20193;-71
2024/02/13 04:49:14;;;;;;;10.80;7.18;;;7.50;68.20;9.30;101259.00;;;;5034089;28;20588;-71
2024/02/13 04:51:41;;;;;;;8.27;6.93;;;7.50;68.20;9.20;101257.00;;;;5034336;28;20303;-71
2024/02/13 04:54:08;;;;;;;9.02;6.75;;;7.50;68.20;9.30;101260.00;;;;5033221;28;20642;-71
2024/02/13 04:56:36;;;;;;;8.30;6.63;;;7.40;68.20;9.30;101258.00;;;;5030809;28;20239;-71
2024/02/13 04:59:04;;;;;;;11.63;7.03;;;7.50;68.30;9.30;101267.00;;;;5032919;28;20200;-71
2024/02/13 05:01:36;;;;;;;7.53;6.13;;;7.50;68.30;9.20;101264.00;;;;5033952;28;20193;-71
2024/02/13 05:09:32;;;;;;;8.65;6.20;;;7.40;68.20;9.20;101264.00;;;;5031867;28;20293;-71
2024/02/13 05:11:59;;;;;;;7.47;5.68;;;7.40;68.30;9.20;101262.00;;;;5034442;28;20283;-71
2024/02/13 05:14:27;;;;;;;10.93;7.45;;;7.40;68.30;9.20;101267.00;;;;5032156;28;20243;-71
2024/02/13 05:16:56;;;;;;;7.90;6.40;;;7.40;68.30;9.20;101262.00;;;;5032044;28;20196;-71
2024/02/13 05:19:23;;;;;;;9.30;6.07;;;7.40;68.30;9.20;101260.00;;;;5032911;28;20232;-71
2024/02/13 05:21:51;;;;;;;6.55;5.85;;;7.40;68.40;9.20;101266.00;;;;5031389;28;20197;-71
2024/02/13 05:24:18;;;;;;;6.85;6.00;;;7.40;68.30;9.20;101261.00;;;;5033298;28;20220;-71
2024/02/13 05:26:45;;;;;;;8.02;6.22;;;7.40;68.30;9.20;101260.00;;;;5029279;28;20276;-71
2024/02/13 05:29:12;;;;;;;8.57;6.00;;;7.40;68.30;9.20;101262.00;;;;5029095;28;20299;-71
2024/02/13 05:31:39;;;;;;;9.65;7.03;;;7.40;68.40;9.20;101265.00;;;;5031812;28;20291;-71
2024/02/13 05:34:08;;;;;;;10.85;5.97;;;7.40;68.50;9.20;101262.00;;;;5033059;28;20210;-71
2024/02/13 05:36:35;;;;;;;7.45;6.05;;;7.40;68.60;9.20;101268.00;;;;5033455;28;20224;-71
2024/02/13 05:39:03;;;;;;;8.43;6.80;;;7.40;68.60;9.20;101266.00;;;;5032536;28;20275;-71
2024/02/13 05:41:30;;;;;;;7.63;6.43;;;7.40;68.70;9.20;101266.00;;;;5031598;28;20200;-71
2024/02/13 05:43:57;;;;;;;8.13;6.68;;;7.40;68.70;9.20;101258.00;;;;5033845;28;20296;-71
2024/02/13 05:46:24;;;;;;;8.30;6.65;;;7.50;68.80;9.20;101261.00;;;;5033295;28;20286;-71
2024/02/13 05:48:54;;;;;;;9.50;7.03;;;7.50;68.90;9.20;101261.00;;;;5032588;28;20291;-70
2024/02/13 05:51:23;;;;;;;7.65;6.10;;;7.50;68.90;9.20;101261.00;;;;5032027;28;20212;-71
2024/02/13 05:53:50;;;;;;;11.45;6.68;;;7.50;69.00;9.20;101263.00;;;;5018499;28;20200;-71
2024/02/13 05:56:17;;;;;;;8.15;6.28;;;7.50;69.00;9.20;101256.00;;;;5029524;28;20747;-71
2024/02/13 05:58:44;;;;;;;8.57;6.38;;;7.50;69.00;9.20;101268.00;;;;5030951;28;20215;-71
2024/02/13 06:01:13;;;;;;;12.10;6.18;;;7.50;69.00;9.20;101266.00;;;;5026353;28;20192;-71
2024/02/13 06:03:40;;;;;;;8.55;6.07;;;7.50;69.00;9.20;101265.00;;;;5007834;28;20224;-71
2024/02/13 06:06:09;;;;;;;9.10;5.72;;;7.50;69.00;9.20;101260.00;;;;5032217;28;20199;-71
2024/02/13 06:08:38;;;;;;;8.32;5.53;;;7.50;69.00;9.20;101256.00;;;;5032713;28;20220;-71
2024/02/13 06:11:05;;;;;;;9.40;6.20;;;7.50;69.10;9.20;101251.00;;;;5031287;28;20219;-71
2024/02/13 06:13:33;;;;;;;8.20;5.63;;;7.50;69.10;9.20;101253.00;;;;5024946;28;20284;-71
2024/02/13 06:16:00;;;;;;;8.50;6.43;;;7.50;69.20;9.30;101257.00;;;;5018164;28;20219;-71
2024/02/13 06:18:27;;;;;;;9.23;6.03;;;7.50;69.30;9.30;101260.00;;;;5022077;28;20193;-71
2024/02/13 06:20:54;;;;;;;8.40;6.10;;;7.60;69.30;9.30;101263.00;;;;5027581;28;20607;-71
2024/02/13 06:23:22;;;;;;;8.98;5.88;;;7.60;69.30;9.30;101260.00;;;;5026020;28;20735;-71
2024/02/13 06:25:50;;;;;;;7.40;5.68;;;7.60;69.30;9.30;101270.00;;;;5028928;28;20224;-72
2024/02/13 06:28:17;;;;;;;10.73;5.70;;;7.60;69.30;9.30;101273.00;;;;5031587;28;20283;-72
2024/02/13 06:30:46;;;;;;;9.27;5.47;;;7.60;69.30;9.30;101272.00;;;;5032324;28;20224;-71
2024/02/13 06:33:14;;;;;;;7.40;5.30;;;7.60;69.30;9.40;101277.00;;;;5017304;28;20285;-72
2024/02/13 06:35:42;;;;;;;9.13;6.07;;;7.70;69.30;9.30;101284.00;;;;5026958;28;20204;-72
2024/02/13 06:38:09;;;;;;;7.00;5.28;;;7.60;69.20;9.40;101284.00;;;;5032254;28;20774;-72
2024/02/13 06:40:36;;;;;;;9.32;5.75;;;7.70;69.20;9.40;101281.00;;;;5031697;28;20192;-71
2024/02/13 06:43:05;;;;;;;7.88;5.65;;;7.70;69.20;9.40;101290.00;;;;5032217;28;20220;-72
2024/02/13 06:45:32;;;;;;;8.80;5.45;;;7.70;69.10;9.40;101294.00;;;;5023832;28;20310;-71
2024/02/13 06:47:59;;;;;;;5.90;4.70;;;7.70;69.10;9.40;101298.00;;;;5032363;28;20228;-72
2024/02/13 06:50:26;;;;;;;6.97;5.38;;;7.70;69.10;9.40;101298.00;;;;5032158;28;20283;-71
2024/02/13 06:52:55;;;;;;;9.57;5.97;;;7.70;69.10;9.40;101298.00;;;;5030470;28;20239;-71
2024/02/13 06:55:24;;;;;;;7.55;5.18;;;7.70;69.10;9.40;101307.00;;;;5030359;28;20234;-71
2024/02/13 06:57:51;;;;;;;8.52;5.22;;;7.70;69.10;9.40;101307.00;;;;5031680;28;20192;-71
2024/02/13 07:00:20;;;;;;;6.78;5.70;;;7.70;69.00;9.40;101300.00;;;;5031602;28;20554;-72
2024/02/13 07:02:48;;;;;;;8.38;5.35;;;7.70;69.00;9.40;101309.00;;;;5028542;28;20188;-72
2024/02/13 07:05:16;;;;;;;6.18;5.00;;;7.70;69.10;9.40;101315.00;;;;5030544;28;20331;-72
2024/02/13 07:07:43;;;;;;;7.65;5.28;;;7.70;69.10;9.40;101315.00;;;;5030956;28;20713;-72
2024/02/13 07:10:11;;;;;;;7.80;4.70;;;7.70;69.20;9.40;101318.00;;;;5031363;28;20200;-72
2024/02/13 07:12:38;;;;;;;7.13;4.97;;;7.70;69.20;9.40;101316.00;;;;5027391;28;22005;-71
2024/02/13 07:15:07;;;;;;;5.65;5.03;;;7.70;69.20;9.40;101311.00;;;;5028022;28;22009;-71
2024/02/13 07:17:35;;;;;;;8.27;4.97;;;7.70;69.20;9.40;101312.00;;;;5028961;28;20721;-71
2024/02/13 07:20:03;;;;;;;10.10;5.70;;;7.70;69.20;9.40;101312.00;;;;5024565;28;20309;-71
2024/02/13 07:22:30;;;;;;;5.85;4.25;;;7.70;69.30;9.40;101320.00;;;;5024926;28;20196;-71
2024/02/13 07:24:58;;;;;;;5.63;4.78;;;7.70;69.30;9.40;101319.00;;;;5029748;28;20319;-71
2024/02/13 07:27:25;;;;;;;6.68;4.45;;;7.70;69.40;9.50;101320.00;;;;5031063;28;20646;-71
2024/02/13 07:29:55;;;;;;;6.93;4.43;;;7.70;69.40;9.50;101323.00;;;;5031620;28;20279;-71
2024/02/13 07:32:22;;;;;;;6.50;4.82;;;7.80;69.40;9.50;101325.00;;;;5030183;28;20205;-72
2024/02/13 07:34:52;;;;;;;4.78;4.05;;;7.80;69.40;9.50;101330.00;;;;5029400;28;20287;-71
2024/02/13 07:37:19;;;;;;;8.10;4.22;;;7.80;69.40;9.60;101330.00;;;;5029429;28;20549;-71
2024/02/13 07:39:46;;;;;;;6.78;3.72;;;7.80;69.30;9.60;101331.00;;;;5031941;28;20287;-72
2024/02/13 07:42:13;;;;;;;4.97;3.67;;;7.80;69.30;9.60;101334.00;;;;5029874;28;20741;-71
2024/02/13 07:44:40;;;;;;;5.70;4.03;;;7.80;69.30;9.60;101335.00;;;;5030435;28;20299;-72
2024/02/13 07:47:08;;;;;;;8.40;4.05;;;7.90;69.40;9.60;101339.00;;;;5030408;28;20258;-71
2024/02/13 07:49:35;;;;;;;6.15;4.43;;;7.90;69.40;9.70;101348.00;;;;5031638;28;20701;-71
2024/02/13 07:52:05;;;;;;;6.25;3.83;;;7.90;69.40;9.70;101351.00;;;;5031554;28;20216;-71
2024/02/13 07:54:33;;;;;;;5.88;4.00;;;7.90;69.50;9.70;101355.00;;;;5022014;28;20580;-72
2024/02/13 07:57:00;;;;;;;7.10;3.60;;;8.00;69.50;9.70;101355.00;;;;5028133;28;20207;-72
2024/02/13 07:59:28;;;;;;;4.80;3.28;;;8.00;69.60;9.80;101360.00;;;;5018477;28;20196;-72
2024/02/13 08:01:56;;;;;;;5.18;3.50;;;8.00;69.60;9.80;101362.00;;;;5029411;28;20299;-72
2024/02/13 08:04:24;;;;;;;5.65;3.15;;;8.10;69.70;9.90;101374.00;;;;5022456;28;20697;-72
2024/02/13 08:06:51;;;;;;;3.33;2.85;;;8.10;69.70;9.90;101367.00;;;;5028584;28;20282;-72
2024/02/13 08:09:19;;;;;;;4.22;2.92;;;8.10;69.70;9.90;101363.00;;;;5025500;28;20331;-72
2024/02/13 08:11:46;;;;;;;4.75;2.55;;;8.20;69.80;10.00;101365.00;;;;5031174;28;20212;-72
2024/02/13 08:14:14;;;;;;;7.72;3.17;;;8.20;69.80;10.00;101372.00;;;;5019229;28;20204;-71
2024/02/13 08:16:41;;;;;;;4.13;3.13;;;8.20;69.80;10.00;101370.00;;;;5023728;28;20607;-71
2024/02/13 08:19:08;;;;;;;4.78;3.05;;;8.30;69.80;10.10;101374.00;;;;5027422;28;20197;-72
2024/02/13 08:21:37;;;;;;;6.25;3.00;;;8.30;69.70;10.10;101378.00;;;;5030765;28;20235;-72
2024/02/13 08:24:07;;;;;;;3.42;2.63;;;8.40;69.80;10.20;101381.00;;;;5027091;28;20258;-71
2024/02/13 08:26:36;;;;;;;5.40;2.95;;;8.40;69.80;10.20;101381.00;;;;5031080;28;20291;-72
2024/02/13 08:29:04;;;;;;;5.28;2.42;;;8.40;69.70;10.30;101392.00;;;;5030529;28;20196;-72
2024/02/13 08:31:31;;;;;;;5.70;3.08;;;8.50;69.80;10.30;101386.00;;;;5026179;28;20293;-72
2024/02/13 08:33:59;;;;;;;5.82;2.90;;;8.50;69.70;10.30;101385.00;;;;5032620;28;20208;-72
2024/02/13 08:36:29;;;;;;;3.95;2.50;;;8.60;69.80;10.40;101389.00;;;;5032756;28;20662;-72
2024/02/13 08:38:56;;;;;;;4.78;2.88;;;8.60;69.70;10.40;101381.00;;;;5034470;28;20204;-71
2024/02/13 08:41:24;;;;;;;5.82;2.90;;;8.70;69.70;10.40;101387.00;;;;5034856;28;20200;-71
2024/02/13 08:43:52;;;;;;;3.20;2.40;;;8.70;69.60;10.50;101382.00;;;;5034334;28;20200;-72
2024/02/13 08:46:22;;;;;;;6.35;2.80;;;8.70;69.60;10.50;101390.00;;;;5028959;28;20271;-72
2024/02/13 08:48:50;;;;;;;5.30;2.83;;;8.80;69.70;10.50;101388.00;;;;5034412;28;20224;-72
2024/02/13 08:51:18;;;;;;;3.85;2.53;;;8.80;69.60;10.60;101390.00;;;;5032981;28;20350;-72
2024/02/13 08:53:46;;;;;;;4.97;2.95;;;8.80;69.60;10.60;101393.00;;;;5034899;28;20204;-72
2024/02/13 08:56:13;;;;;;;5.05;2.40;;;8.90;69.70;10.60;101390.00;;;;5029365;28;20616;-72
2024/02/13 08:58:41;;;;;;;4.43;2.67;;;8.90;69.70;10.70;101396.00;;;;5034761;28;20283;-73
2024/02/13 09:01:10;;;;;;;5.15;2.55;;;9.00;69.80;10.70;101397.00;;;;5033536;28;20258;-72
2024/02/13 09:03:37;;;;;;;3.67;2.55;;;9.00;69.80;10.80;101391.00;;;;5033129;28;20299;-72
2024/02/13 09:06:05;;;;;;;4.50;2.65;;;9.00;69.80;10.90;101397.00;;;;5032289;28;20307;-72
2024/02/13 09:08:36;;;;;;;3.28;2.38;;;9.10;69.90;10.90;101389.00;;;;5033373;28;20295;-72
2024/02/13 09:11:03;;;;;;;3.55;2.72;;;9.20;70.00;11.00;101388.00;;;;5032833;28;20197;-72
2024/02/13 09:13:30;;;;;;;6.00;3.22;;;9.20;70.00;11.00;101406.00;;;;5032212;28;20287;-72
2024/02/13 09:15:57;;;;;;;6.60;2.22;;;9.30;70.00;11.10;101396.00;;;;5033685;28;20300;-72
2024/02/13 09:18:26;;;;;;;4.32;2.38;;;9.30;70.10;11.20;101405.00;;;;5032851;28;20613;-72
2024/02/13 09:20:54;;;;;;;3.40;2.25;;;9.40;70.20;11.30;101395.00;;;;5032740;28;20315;-72
2024/02/13 09:23:21;;;;;;;5.53;2.55;;;9.50;70.20;11.40;101401.00;;;;5033881;28;20220;-72
2024/02/13 09:25:49;;;;;;;6.53;3.28;;;9.60;70.20;11.50;101408.00;;;;5033710;28;20228;-72
2024/02/13 09:28:17;;;;;;;3.58;2.38;;;9.70;70.20;11.50;101409.00;;;;5033659;28;20197;-72
2024/02/13 09:30:47;;;;;;;3.60;2.63;;;9.80;70.20;11.60;101402.00;;;;5030758;28;20250;-72
2024/02/13 09:33:16;;;;;;;4.00;2.47;;;9.80;70.00;11.70;101407.00;;;;5032553;28;20207;-73
2024/02/13 09:35:45;;;;;;;4.38;2.80;;;9.90;70.00;11.70;101412.00;;;;5028570;28;20200;-73
2024/02/13 09:38:12;;;;;;;4.43;2.50;;;10.00;69.80;11.80;101408.00;;;;5027668;28;20272;-72
2024/02/13 09:40:42;;;;;;;4.20;2.78;;;10.00;69.70;11.90;101406.00;;;;5030848;28;20200;-73
2024/02/13 09:43:10;;;;;;;6.95;2.58;;;10.10;69.50;11.90;101401.00;;;;5012982;28;20196;-73
2024/02/13 09:45:39;;;;;;;3.47;2.30;;;10.20;69.50;12.00;101408.00;;;;5032229;28;20689;-72
2024/02/13 09:48:21;;;;;;;5.20;2.35;;;10.30;69.50;12.00;101419.00;;;;5031987;28;20692;-73
2024/02/13 09:50:51;;;;;;;4.40;2.22;;;10.30;69.40;12.10;101410.00;;;;5030946;28;20196;-72
2024/02/13 09:53:24;;;;;;;5.13;2.35;;;10.40;69.30;12.10;101418.00;;;;5032821;28;20572;-72
2024/02/13 09:55:53;;;;;;;5.25;2.72;;;10.40;69.10;12.20;101423.00;;;;5024270;28;20303;-73
2024/02/13 09:58:21;;;;;;;2.55;1.83;;;10.50;69.10;12.30;101417.00;;;;5032323;28;20542;-73
2024/02/13 10:00:49;;;;;;;2.88;2.35;;;10.50;69.20;12.30;101416.00;;;;5024927;28;20291;-72
2024/02/13 10:03:16;;;;;;;3.25;2.50;;;10.60;69.30;12.40;101420.00;;;;5024294;28;20284;-73
2024/02/13 10:05:43;;;;;;;3.17;2.10;;;10.60;69.20;12.50;101427.00;;;;5033091;28;20390;-72
2024/02/13 10:08:12;;;;;;;3.75;2.70;;;10.70;69.20;12.50;101431.00;;;;5033114;28;20287;-73
2024/02/13 10:10:39;;;;;;;5.35;2.38;;;10.70;69.10;12.60;101436.00;;;;5030202;28;20291;-72
2024/02/13 10:13:09;;;;;;;5.38;2.15;;;10.80;69.20;12.60;101432.00;;;;5032074;28;20204;-72
2024/02/13 10:15:40;;;;;;;4.63;2.60;;;10.80;69.10;12.70;101432.00;;;;5030704;28;20214;-72
2024/02/13 10:18:11;;;;;;;3.33;2.17;;;10.90;69.20;12.70;101427.00;;;;5029412;28;20193;-72
2024/02/13 10:20:39;;;;;;;5.50;3.03;;;11.00;69.10;12.80;101430.00;;;;5030265;28;20247;-72
2024/02/13 10:23:09;;;;;;;3.65;2.67;;;11.00;69.10;12.80;101429.00;;;;5029719;28;20232;-72
2024/02/13 10:25:37;;;;;;;5.88;2.88;;;11.10;69.00;12.90;101435.00;;;;5030110;28;20251;-72
2024/02/13 10:28:06;;;;;;;8.35;2.63;;;11.10;69.00;12.90;101432.00;;;;5031703;28;20630;-72
2024/02/13 10:30:34;;;;;;;4.78;2.40;;;11.20;69.10;13.00;101430.00;;;;5032832;28;20563;-73
2024/02/13 10:33:06;;;;;;;4.88;2.40;;;11.30;68.90;13.00;101449.00;;;;5031332;28;20204;-72
2024/02/13 10:35:33;;;;;;;5.13;2.45;;;11.30;68.80;13.10;101443.00;;;;5032209;28;20199;-72
2024/02/13 10:38:03;;;;;;;4.63;2.75;;;11.40;68.70;13.10;101436.00;;;;5032840;28;20231;-72
2024/02/13 10:40:33;;;;;;;4.63;2.25;;;11.40;68.60;13.10;101436.00;;;;5032510;28;20613;-72
2024/02/13 10:43:03;;;;;;;3.55;2.47;;;11.40;68.50;13.20;101444.00;;;;5031217;28;20246;-72
2024/02/13 10:45:32;;;;;;;9.52;2.95;;;11.50;68.50;13.20;101445.00;;;;5020437;28;20600;-72
2024/02/13 10:48:10;;;;;;;5.35;2.38;;;11.60;68.50;13.20;101446.00;;;;5032585;28;20201;-73
2024/02/13 10:50:40;;;;;;;3.35;2.05;;;11.60;68.40;13.30;101439.00;;;;5031727;28;20635;-73
2024/02/13 10:53:08;;;;;;;5.45;2.40;;;11.70;68.50;13.40;101447.00;;;;5031610;28;20248;-72
2024/02/13 10:55:37;;;;;;;2.53;2.08;;;11.70;68.60;13.50;101446.00;;;;5032566;28;20232;-72
2024/02/13 10:58:07;;;;;;;4.05;2.03;;;11.80;68.50;13.50;101452.00;;;;5032375;28;20196;-73
2024/02/13 11:00:35;;;;;;;5.97;2.53;;;11.90;68.50;13.60;101439.00;;;;5031506;28;20193;-73
2024/02/13 11:03:04;;;;;;;4.35;2.92;;;11.90;68.30;13.70;101448.00;;;;5031573;28;20234;-73
2024/02/13 11:05:32;;;;;;;3.05;2.15;;;12.00;68.40;13.70;101451.00;;;;5031981;28;20224;-73